sensor_id;sensor_type;location;lat;lon;timestamp;P1;durP1;ratioP1;P2;durP2;ratioP2
8327;SDS011;4201;48.754;8.864;2022-09-12T00:01:05;15.60;;;13.90;;
8327;SDS011;4201;48.754;8.864;2022-09-12T00:03:33;14.43;;;12.90;;
8327;SDS011;4201;48.754;8.864;2022-09-12T00:06:00;15.07;;;13.47;;
8327;SDS011;4201;48.754;8.864;2022-09-12T00:08:26;17.50;;;15.10;;
8327;SDS011;4201;48.754;8.864;2022-09-12T00:10:52;16.83;;;14.53;;
8327;SDS011;4201;48.754;8.864;2022-09-12T00:13:19;16.93;;;13.97;;
8327;SDS011;4201;48.754;8.864;2022-09-12T00:15:45;16.70;;;14.67;;
8327;SDS011;4201;48.754;8.864;2022-09-12T00:18:12;15.80;;;14.17;;
8327;SDS011;4201;48.754;8.864;2022-09-12T00:20:41;14.83;;;13.30;;
8327;SDS011;4201;48.754;8.864;2022-09-12T00:23:07;16.23;;;14.30;;
8327;SDS011;4201;48.754;8.864;2022-09-12T00:25:34;15.87;;;14.13;;
8327;SDS011;4201;48.754;8.864;2022-09-12T00:28:00;16.67;;;14.60;;
8327;SDS011;4201;48.754;8.864;2022-09-12T00:30:26;18.83;;;14.13;;
8327;SDS011;4201;48.754;8.864;2022-09-12T00:32:52;19.83;;;15.40;;
8327;SDS011;4201;48.754;8.864;2022-09-12T00:35:19;18.30;;;14.63;;
8327;SDS011;4201;48.754;8.864;2022-09-12T00:37:46;16.47;;;14.27;;
8327;SDS011;4201;48.754;8.864;2022-09-12T00:40:12;17.07;;;14.27;;
8327;SDS011;4201;48.754;8.864;2022-09-12T00:42:39;19.27;;;14.80;;
8327;SDS011;4201;48.754;8.864;2022-09-12T00:45:05;18.70;;;15.40;;
8327;SDS011;4201;48.754;8.864;2022-09-12T00:47:32;16.23;;;14.47;;
8327;SDS011;4201;48.754;8.864;2022-09-12T00:50:00;18.47;;;15.13;;
8327;SDS011;4201;48.754;8.864;2022-09-12T00:52:30;17.53;;;15.33;;
8327;SDS011;4201;48.754;8.864;2022-09-12T00:55:00;18.97;;;13.97;;
8327;SDS011;4201;48.754;8.864;2022-09-12T00:57:29;16.97;;;13.40;;
8327;SDS011;4201;48.754;8.864;2022-09-12T00:59:56;17.43;;;14.10;;
8327;SDS011;4201;48.754;8.864;2022-09-12T01:02:24;16.60;;;14.40;;
8327;SDS011;4201;48.754;8.864;2022-09-12T01:04:50;16.10;;;14.40;;
8327;SDS011;4201;48.754;8.864;2022-09-12T01:07:17;15.50;;;13.03;;
8327;SDS011;4201;48.754;8.864;2022-09-12T01:09:44;15.67;;;13.30;;
8327;SDS011;4201;48.754;8.864;2022-09-12T01:12:12;16.80;;;12.50;;
8327;SDS011;4201;48.754;8.864;2022-09-12T01:14:39;15.63;;;13.93;;
8327;SDS011;4201;48.754;8.864;2022-09-12T01:17:05;17.30;;;14.43;;
8327;SDS011;4201;48.754;8.864;2022-09-12T01:22:18;19.50;;;13.80;;
8327;SDS011;4201;48.754;8.864;2022-09-12T01:24:50;18.07;;;15.17;;
8327;SDS011;4201;48.754;8.864;2022-09-12T01:32:48;15.53;;;13.70;;
8327;SDS011;4201;48.754;8.864;2022-09-12T01:35:20;16.50;;;14.20;;
8327;SDS011;4201;48.754;8.864;2022-09-12T01:37:51;19.57;;;14.77;;
8327;SDS011;4201;48.754;8.864;2022-09-12T01:40:20;20.13;;;15.10;;
8327;SDS011;4201;48.754;8.864;2022-09-12T01:42:49;17.37;;;14.80;;
8327;SDS011;4201;48.754;8.864;2022-09-12T01:45:19;16.80;;;14.77;;
8327;SDS011;4201;48.754;8.864;2022-09-12T01:47:50;17.00;;;14.20;;
8327;SDS011;4201;48.754;8.864;2022-09-12T01:50:20;18.20;;;14.63;;
8327;SDS011;4201;48.754;8.864;2022-09-12T01:52:49;15.67;;;14.07;;
8327;SDS011;4201;48.754;8.864;2022-09-12T01:55:17;21.13;;;15.37;;
8327;SDS011;4201;48.754;8.864;2022-09-12T01:57:46;17.87;;;14.50;;
8327;SDS011;4201;48.754;8.864;2022-09-12T02:00:14;16.77;;;14.90;;
8327;SDS011;4201;48.754;8.864;2022-09-12T02:02:42;19.50;;;14.33;;
8327;SDS011;4201;48.754;8.864;2022-09-12T02:05:11;17.03;;;14.73;;
8327;SDS011;4201;48.754;8.864;2022-09-12T02:07:40;19.63;;;15.23;;
8327;SDS011;4201;48.754;8.864;2022-09-12T02:10:09;17.73;;;14.03;;
8327;SDS011;4201;48.754;8.864;2022-09-12T02:12:39;17.50;;;15.20;;
8327;SDS011;4201;48.754;8.864;2022-09-12T02:15:08;17.70;;;14.40;;
8327;SDS011;4201;48.754;8.864;2022-09-12T02:17:36;19.43;;;13.87;;
8327;SDS011;4201;48.754;8.864;2022-09-12T02:20:04;16.37;;;14.13;;
8327;SDS011;4201;48.754;8.864;2022-09-12T02:22:34;18.57;;;14.27;;
8327;SDS011;4201;48.754;8.864;2022-09-12T02:25:00;20.17;;;14.90;;
8327;SDS011;4201;48.754;8.864;2022-09-12T02:27:29;17.90;;;13.90;;
8327;SDS011;4201;48.754;8.864;2022-09-12T02:29:57;16.50;;;14.40;;
8327;SDS011;4201;48.754;8.864;2022-09-12T02:32:26;19.03;;;14.67;;
8327;SDS011;4201;48.754;8.864;2022-09-12T02:34:55;18.27;;;15.40;;
8327;SDS011;4201;48.754;8.864;2022-09-12T02:37:27;17.73;;;15.40;;
8327;SDS011;4201;48.754;8.864;2022-09-12T02:39:59;18.00;;;13.83;;
8327;SDS011;4201;48.754;8.864;2022-09-12T02:42:25;18.97;;;15.50;;
8327;SDS011;4201;48.754;8.864;2022-09-12T02:44:52;19.00;;;15.03;;
8327;SDS011;4201;48.754;8.864;2022-09-12T02:47:22;19.10;;;15.60;;
8327;SDS011;4201;48.754;8.864;2022-09-12T02:49:49;15.30;;;13.67;;
8327;SDS011;4201;48.754;8.864;2022-09-12T02:52:16;19.20;;;14.73;;
8327;SDS011;4201;48.754;8.864;2022-09-12T02:54:42;18.57;;;14.83;;
8327;SDS011;4201;48.754;8.864;2022-09-12T02:57:15;17.83;;;14.57;;
8327;SDS011;4201;48.754;8.864;2022-09-12T02:59:42;16.60;;;14.30;;
8327;SDS011;4201;48.754;8.864;2022-09-12T03:02:12;21.60;;;15.43;;
8327;SDS011;4201;48.754;8.864;2022-09-12T03:04:52;18.30;;;14.53;;
8327;SDS011;4201;48.754;8.864;2022-09-12T03:07:27;19.37;;;15.43;;
8327;SDS011;4201;48.754;8.864;2022-09-12T03:09:58;21.30;;;15.67;;
8327;SDS011;4201;48.754;8.864;2022-09-12T03:12:33;18.20;;;15.20;;
8327;SDS011;4201;48.754;8.864;2022-09-12T03:15:06;17.57;;;15.33;;
8327;SDS011;4201;48.754;8.864;2022-09-12T03:17:39;17.20;;;14.20;;
8327;SDS011;4201;48.754;8.864;2022-09-12T03:20:08;16.43;;;14.70;;
8327;SDS011;4201;48.754;8.864;2022-09-12T03:22:37;21.27;;;14.47;;
8327;SDS011;4201;48.754;8.864;2022-09-12T03:25:08;16.60;;;14.00;;
8327;SDS011;4201;48.754;8.864;2022-09-12T03:27:39;16.17;;;14.07;;
8327;SDS011;4201;48.754;8.864;2022-09-12T03:30:08;16.30;;;14.37;;
8327;SDS011;4201;48.754;8.864;2022-09-12T03:32:40;15.37;;;13.23;;
8327;SDS011;4201;48.754;8.864;2022-09-12T03:35:06;21.20;;;14.90;;
8327;SDS011;4201;48.754;8.864;2022-09-12T03:37:33;16.77;;;14.20;;
8327;SDS011;4201;48.754;8.864;2022-09-12T03:39:59;16.40;;;14.30;;
8327;SDS011;4201;48.754;8.864;2022-09-12T03:42:25;19.40;;;14.70;;
8327;SDS011;4201;48.754;8.864;2022-09-12T03:44:53;15.87;;;13.33;;
8327;SDS011;4201;48.754;8.864;2022-09-12T03:47:19;17.20;;;14.83;;
8327;SDS011;4201;48.754;8.864;2022-09-12T03:49:45;17.87;;;14.97;;
8327;SDS011;4201;48.754;8.864;2022-09-12T03:52:11;18.00;;;15.23;;
8327;SDS011;4201;48.754;8.864;2022-09-12T03:54:38;19.43;;;16.17;;
8327;SDS011;4201;48.754;8.864;2022-09-12T03:57:04;16.47;;;14.50;;
8327;SDS011;4201;48.754;8.864;2022-09-12T03:59:30;22.53;;;14.70;;
8327;SDS011;4201;48.754;8.864;2022-09-12T04:01:58;16.83;;;14.13;;
8327;SDS011;4201;48.754;8.864;2022-09-12T04:04:24;18.80;;;14.03;;
8327;SDS011;4201;48.754;8.864;2022-09-12T04:06:51;17.10;;;13.83;;
8327;SDS011;4201;48.754;8.864;2022-09-12T04:09:17;15.63;;;12.73;;
8327;SDS011;4201;48.754;8.864;2022-09-12T04:11:43;19.10;;;13.30;;
8327;SDS011;4201;48.754;8.864;2022-09-12T04:14:09;18.53;;;15.57;;
8327;SDS011;4201;48.754;8.864;2022-09-12T04:16:36;17.70;;;14.70;;
8327;SDS011;4201;48.754;8.864;2022-09-12T04:19:03;18.93;;;14.90;;
8327;SDS011;4201;48.754;8.864;2022-09-12T04:21:30;16.87;;;13.80;;
8327;SDS011;4201;48.754;8.864;2022-09-12T04:23:56;17.70;;;14.10;;
8327;SDS011;4201;48.754;8.864;2022-09-12T04:26:22;16.77;;;13.60;;
8327;SDS011;4201;48.754;8.864;2022-09-12T04:28:51;17.37;;;13.93;;
8327;SDS011;4201;48.754;8.864;2022-09-12T04:31:18;16.83;;;14.30;;
8327;SDS011;4201;48.754;8.864;2022-09-12T04:33:46;19.73;;;14.57;;
8327;SDS011;4201;48.754;8.864;2022-09-12T04:36:15;18.50;;;14.40;;
8327;SDS011;4201;48.754;8.864;2022-09-12T04:38:42;18.30;;;15.03;;
8327;SDS011;4201;48.754;8.864;2022-09-12T04:41:09;17.27;;;15.10;;
8327;SDS011;4201;48.754;8.864;2022-09-12T04:43:35;17.80;;;14.47;;
8327;SDS011;4201;48.754;8.864;2022-09-12T04:46:03;18.40;;;15.47;;
8327;SDS011;4201;48.754;8.864;2022-09-12T04:48:30;18.30;;;13.97;;
8327;SDS011;4201;48.754;8.864;2022-09-12T04:51:04;18.67;;;16.00;;
8327;SDS011;4201;48.754;8.864;2022-09-12T04:53:32;17.70;;;14.13;;
8327;SDS011;4201;48.754;8.864;2022-09-12T04:56:00;18.30;;;14.20;;
8327;SDS011;4201;48.754;8.864;2022-09-12T04:58:26;18.23;;;13.00;;
8327;SDS011;4201;48.754;8.864;2022-09-12T05:00:53;16.27;;;14.47;;
8327;SDS011;4201;48.754;8.864;2022-09-12T05:03:19;18.20;;;13.50;;
8327;SDS011;4201;48.754;8.864;2022-09-12T05:05:45;17.07;;;14.13;;
8327;SDS011;4201;48.754;8.864;2022-09-12T05:08:11;17.20;;;14.67;;
8327;SDS011;4201;48.754;8.864;2022-09-12T05:10:39;18.30;;;13.97;;
8327;SDS011;4201;48.754;8.864;2022-09-12T05:13:06;17.27;;;13.77;;
8327;SDS011;4201;48.754;8.864;2022-09-12T05:15:33;16.60;;;14.80;;
8327;SDS011;4201;48.754;8.864;2022-09-12T05:17:59;17.00;;;14.03;;
8327;SDS011;4201;48.754;8.864;2022-09-12T05:20:25;15.93;;;14.17;;
8327;SDS011;4201;48.754;8.864;2022-09-12T05:22:53;18.23;;;14.97;;
8327;SDS011;4201;48.754;8.864;2022-09-12T05:25:19;15.93;;;13.90;;
8327;SDS011;4201;48.754;8.864;2022-09-12T05:27:49;14.33;;;12.30;;
8327;SDS011;4201;48.754;8.864;2022-09-12T05:30:17;14.40;;;11.43;;
8327;SDS011;4201;48.754;8.864;2022-09-12T05:32:43;12.20;;;10.77;;
8327;SDS011;4201;48.754;8.864;2022-09-12T05:35:09;13.03;;;9.80;;
8327;SDS011;4201;48.754;8.864;2022-09-12T05:37:36;11.93;;;10.13;;
8327;SDS011;4201;48.754;8.864;2022-09-12T05:40:02;13.40;;;10.30;;
8327;SDS011;4201;48.754;8.864;2022-09-12T05:42:31;10.40;;;9.30;;
8327;SDS011;4201;48.754;8.864;2022-09-12T05:44:59;10.17;;;8.90;;
8327;SDS011;4201;48.754;8.864;2022-09-12T05:47:25;12.30;;;7.93;;
8327;SDS011;4201;48.754;8.864;2022-09-12T05:49:51;11.20;;;8.23;;
8327;SDS011;4201;48.754;8.864;2022-09-12T05:52:19;10.27;;;9.20;;
8327;SDS011;4201;48.754;8.864;2022-09-12T05:54:45;11.07;;;8.30;;
8327;SDS011;4201;48.754;8.864;2022-09-12T05:57:13;9.30;;;7.93;;
8327;SDS011;4201;48.754;8.864;2022-09-12T05:59:39;12.07;;;9.27;;
8327;SDS011;4201;48.754;8.864;2022-09-12T06:02:07;9.17;;;7.90;;
8327;SDS011;4201;48.754;8.864;2022-09-12T06:04:34;8.30;;;7.50;;
8327;SDS011;4201;48.754;8.864;2022-09-12T06:07:00;8.37;;;7.33;;
8327;SDS011;4201;48.754;8.864;2022-09-12T06:09:26;10.83;;;7.07;;
8327;SDS011;4201;48.754;8.864;2022-09-12T06:11:53;10.77;;;7.80;;
8327;SDS011;4201;48.754;8.864;2022-09-12T06:14:20;8.90;;;8.00;;
8327;SDS011;4201;48.754;8.864;2022-09-12T06:16:46;11.33;;;8.30;;
8327;SDS011;4201;48.754;8.864;2022-09-12T06:19:15;8.67;;;7.70;;
8327;SDS011;4201;48.754;8.864;2022-09-12T06:21:42;8.53;;;7.13;;
8327;SDS011;4201;48.754;8.864;2022-09-12T06:24:08;8.90;;;7.97;;
8327;SDS011;4201;48.754;8.864;2022-09-12T06:26:35;15.60;;;7.63;;
8327;SDS011;4201;48.754;8.864;2022-09-12T06:29:01;11.43;;;8.07;;
8327;SDS011;4201;48.754;8.864;2022-09-12T06:31:28;12.00;;;7.43;;
8327;SDS011;4201;48.754;8.864;2022-09-12T06:33:55;13.60;;;6.80;;
8327;SDS011;4201;48.754;8.864;2022-09-12T06:36:24;9.00;;;6.67;;
8327;SDS011;4201;48.754;8.864;2022-09-12T06:38:53;8.17;;;7.33;;
8327;SDS011;4201;48.754;8.864;2022-09-12T06:41:20;7.00;;;6.20;;
8327;SDS011;4201;48.754;8.864;2022-09-12T06:43:46;8.00;;;7.20;;
8327;SDS011;4201;48.754;8.864;2022-09-12T06:46:12;8.80;;;7.90;;
8327;SDS011;4201;48.754;8.864;2022-09-12T06:48:38;8.40;;;6.33;;
8327;SDS011;4201;48.754;8.864;2022-09-12T06:51:05;7.50;;;6.80;;
8327;SDS011;4201;48.754;8.864;2022-09-12T06:53:33;7.07;;;6.33;;
8327;SDS011;4201;48.754;8.864;2022-09-12T06:56:01;8.43;;;6.60;;
8327;SDS011;4201;48.754;8.864;2022-09-12T06:58:28;7.67;;;6.97;;
8327;SDS011;4201;48.754;8.864;2022-09-12T07:00:59;10.10;;;7.57;;
8327;SDS011;4201;48.754;8.864;2022-09-12T07:03:26;9.63;;;7.07;;
8327;SDS011;4201;48.754;8.864;2022-09-12T07:05:53;8.40;;;7.60;;
8327;SDS011;4201;48.754;8.864;2022-09-12T07:08:19;9.57;;;6.23;;
8327;SDS011;4201;48.754;8.864;2022-09-12T07:10:47;6.87;;;6.23;;
8327;SDS011;4201;48.754;8.864;2022-09-12T07:13:13;10.37;;;6.73;;
8327;SDS011;4201;48.754;8.864;2022-09-12T07:15:39;6.73;;;5.90;;
8327;SDS011;4201;48.754;8.864;2022-09-12T07:18:05;7.40;;;6.43;;
8327;SDS011;4201;48.754;8.864;2022-09-12T07:20:31;10.33;;;6.50;;
8327;SDS011;4201;48.754;8.864;2022-09-12T07:22:58;7.40;;;6.40;;
8327;SDS011;4201;48.754;8.864;2022-09-12T07:25:24;11.40;;;6.27;;
8327;SDS011;4201;48.754;8.864;2022-09-12T07:27:52;7.40;;;5.63;;
8327;SDS011;4201;48.754;8.864;2022-09-12T07:30:19;9.00;;;6.27;;
8327;SDS011;4201;48.754;8.864;2022-09-12T07:32:46;8.40;;;6.23;;
8327;SDS011;4201;48.754;8.864;2022-09-12T07:35:12;6.97;;;6.27;;
8327;SDS011;4201;48.754;8.864;2022-09-12T07:37:38;7.50;;;6.67;;
8327;SDS011;4201;48.754;8.864;2022-09-12T07:40:05;7.33;;;6.40;;
8327;SDS011;4201;48.754;8.864;2022-09-12T07:42:31;8.27;;;6.40;;
8327;SDS011;4201;48.754;8.864;2022-09-12T07:44:59;8.20;;;7.13;;
8327;SDS011;4201;48.754;8.864;2022-09-12T07:47:25;6.90;;;6.20;;
8327;SDS011;4201;48.754;8.864;2022-09-12T07:49:51;10.17;;;7.20;;
8327;SDS011;4201;48.754;8.864;2022-09-12T07:52:17;7.93;;;6.93;;
8327;SDS011;4201;48.754;8.864;2022-09-12T07:54:44;7.60;;;7.00;;
8327;SDS011;4201;48.754;8.864;2022-09-12T07:57:10;8.30;;;6.43;;
8327;SDS011;4201;48.754;8.864;2022-09-12T07:59:36;7.40;;;6.70;;
8327;SDS011;4201;48.754;8.864;2022-09-12T08:02:10;7.40;;;6.60;;
8327;SDS011;4201;48.754;8.864;2022-09-12T08:04:37;7.80;;;6.33;;
8327;SDS011;4201;48.754;8.864;2022-09-12T08:07:03;9.70;;;6.57;;
8327;SDS011;4201;48.754;8.864;2022-09-12T08:09:30;8.70;;;6.60;;
8327;SDS011;4201;48.754;8.864;2022-09-12T08:11:56;6.40;;;5.80;;
8327;SDS011;4201;48.754;8.864;2022-09-12T08:14:23;7.43;;;6.30;;
8327;SDS011;4201;48.754;8.864;2022-09-12T08:16:49;5.60;;;4.80;;
8327;SDS011;4201;48.754;8.864;2022-09-12T08:19:17;6.27;;;5.67;;
8327;SDS011;4201;48.754;8.864;2022-09-12T08:21:43;10.27;;;5.80;;
8327;SDS011;4201;48.754;8.864;2022-09-12T08:24:10;6.63;;;5.47;;
8327;SDS011;4201;48.754;8.864;2022-09-12T08:26:36;6.40;;;5.13;;
8327;SDS011;4201;48.754;8.864;2022-09-12T08:29:03;5.87;;;5.10;;
8327;SDS011;4201;48.754;8.864;2022-09-12T08:31:29;6.10;;;4.60;;
8327;SDS011;4201;48.754;8.864;2022-09-12T08:34:00;6.37;;;4.90;;
8327;SDS011;4201;48.754;8.864;2022-09-12T08:36:28;7.00;;;4.40;;
8327;SDS011;4201;48.754;8.864;2022-09-12T08:38:55;4.33;;;3.93;;
8327;SDS011;4201;48.754;8.864;2022-09-12T08:41:23;7.67;;;4.70;;
8327;SDS011;4201;48.754;8.864;2022-09-12T08:43:55;4.40;;;3.97;;
8327;SDS011;4201;48.754;8.864;2022-09-12T08:46:23;4.57;;;4.07;;
8327;SDS011;4201;48.754;8.864;2022-09-12T08:48:51;5.53;;;4.37;;
8327;SDS011;4201;48.754;8.864;2022-09-12T08:51:17;4.73;;;4.20;;
8327;SDS011;4201;48.754;8.864;2022-09-12T08:53:46;3.93;;;3.30;;
8327;SDS011;4201;48.754;8.864;2022-09-12T08:56:14;5.33;;;3.40;;
8327;SDS011;4201;48.754;8.864;2022-09-12T08:58:41;6.23;;;4.23;;
8327;SDS011;4201;48.754;8.864;2022-09-12T09:01:08;5.13;;;4.00;;
8327;SDS011;4201;48.754;8.864;2022-09-12T09:03:46;7.73;;;4.50;;
8327;SDS011;4201;48.754;8.864;2022-09-12T09:06:24;7.60;;;4.13;;
8327;SDS011;4201;48.754;8.864;2022-09-12T09:08:58;9.20;;;4.40;;
8327;SDS011;4201;48.754;8.864;2022-09-12T09:11:35;5.60;;;4.37;;
8327;SDS011;4201;48.754;8.864;2022-09-12T09:14:07;4.80;;;3.70;;
8327;SDS011;4201;48.754;8.864;2022-09-12T09:16:54;4.60;;;3.43;;
8327;SDS011;4201;48.754;8.864;2022-09-12T09:19:22;4.77;;;3.50;;
8327;SDS011;4201;48.754;8.864;2022-09-12T09:21:52;4.30;;;3.83;;
8327;SDS011;4201;48.754;8.864;2022-09-12T09:24:22;6.67;;;4.43;;
8327;SDS011;4201;48.754;8.864;2022-09-12T09:26:51;4.23;;;3.40;;
8327;SDS011;4201;48.754;8.864;2022-09-12T09:29:18;5.33;;;3.80;;
8327;SDS011;4201;48.754;8.864;2022-09-12T09:31:46;4.97;;;3.70;;
8327;SDS011;4201;48.754;8.864;2022-09-12T09:34:14;4.93;;;3.70;;
8327;SDS011;4201;48.754;8.864;2022-09-12T09:36:45;4.70;;;3.33;;
8327;SDS011;4201;48.754;8.864;2022-09-12T09:39:15;5.00;;;3.83;;
8327;SDS011;4201;48.754;8.864;2022-09-12T09:41:47;7.70;;;3.63;;
8327;SDS011;4201;48.754;8.864;2022-09-12T09:44:15;4.80;;;3.43;;
8327;SDS011;4201;48.754;8.864;2022-09-12T09:46:42;4.43;;;3.60;;
8327;SDS011;4201;48.754;8.864;2022-09-12T09:49:08;4.20;;;3.40;;
8327;SDS011;4201;48.754;8.864;2022-09-12T09:51:37;5.33;;;3.40;;
8327;SDS011;4201;48.754;8.864;2022-09-12T09:54:07;3.50;;;2.67;;
8327;SDS011;4201;48.754;8.864;2022-09-12T09:56:36;6.67;;;3.93;;
8327;SDS011;4201;48.754;8.864;2022-09-12T09:59:08;5.37;;;3.87;;
8327;SDS011;4201;48.754;8.864;2022-09-12T10:01:35;4.13;;;3.13;;
8327;SDS011;4201;48.754;8.864;2022-09-12T10:04:02;4.00;;;2.53;;
8327;SDS011;4201;48.754;8.864;2022-09-12T10:06:29;4.67;;;3.03;;
8327;SDS011;4201;48.754;8.864;2022-09-12T10:09:05;3.83;;;2.60;;
8327;SDS011;4201;48.754;8.864;2022-09-12T10:11:33;5.03;;;3.33;;
8327;SDS011;4201;48.754;8.864;2022-09-12T10:13:59;4.47;;;2.90;;
8327;SDS011;4201;48.754;8.864;2022-09-12T10:16:27;3.90;;;3.30;;
8327;SDS011;4201;48.754;8.864;2022-09-12T10:18:54;3.40;;;2.50;;
8327;SDS011;4201;48.754;8.864;2022-09-12T10:21:26;3.57;;;2.90;;
8327;SDS011;4201;48.754;8.864;2022-09-12T10:23:57;7.73;;;2.63;;
8327;SDS011;4201;48.754;8.864;2022-09-12T10:26:24;4.57;;;2.57;;
8327;SDS011;4201;48.754;8.864;2022-09-12T10:28:52;4.00;;;2.50;;
8327;SDS011;4201;48.754;8.864;2022-09-12T10:31:22;3.77;;;2.90;;
8327;SDS011;4201;48.754;8.864;2022-09-12T10:33:54;3.37;;;2.40;;
8327;SDS011;4201;48.754;8.864;2022-09-12T10:36:21;2.80;;;2.00;;
8327;SDS011;4201;48.754;8.864;2022-09-12T10:38:48;4.30;;;2.40;;
8327;SDS011;4201;48.754;8.864;2022-09-12T10:41:15;2.80;;;2.20;;
8327;SDS011;4201;48.754;8.864;2022-09-12T10:43:42;3.47;;;2.50;;
8327;SDS011;4201;48.754;8.864;2022-09-12T10:49:11;4.20;;;3.00;;
8327;SDS011;4201;48.754;8.864;2022-09-12T10:51:38;3.10;;;2.47;;
8327;SDS011;4201;48.754;8.864;2022-09-12T10:54:06;4.80;;;2.37;;
8327;SDS011;4201;48.754;8.864;2022-09-12T10:56:34;3.00;;;2.30;;
8327;SDS011;4201;48.754;8.864;2022-09-12T10:59:05;3.50;;;2.20;;
8327;SDS011;4201;48.754;8.864;2022-09-12T11:01:37;3.40;;;2.73;;
8327;SDS011;4201;48.754;8.864;2022-09-12T11:04:13;3.00;;;2.20;;
8327;SDS011;4201;48.754;8.864;2022-09-12T11:06:44;3.03;;;2.13;;
8327;SDS011;4201;48.754;8.864;2022-09-12T11:09:14;3.20;;;2.20;;
8327;SDS011;4201;48.754;8.864;2022-09-12T11:11:49;2.90;;;1.93;;
8327;SDS011;4201;48.754;8.864;2022-09-12T11:14:23;3.13;;;2.33;;
8327;SDS011;4201;48.754;8.864;2022-09-12T11:16:54;3.07;;;2.43;;
8327;SDS011;4201;48.754;8.864;2022-09-12T11:19:35;4.30;;;1.90;;
8327;SDS011;4201;48.754;8.864;2022-09-12T11:22:10;4.00;;;2.30;;
8327;SDS011;4201;48.754;8.864;2022-09-12T11:24:43;3.47;;;2.33;;
8327;SDS011;4201;48.754;8.864;2022-09-12T11:27:17;2.70;;;1.83;;
8327;SDS011;4201;48.754;8.864;2022-09-12T11:29:48;2.97;;;1.83;;
8327;SDS011;4201;48.754;8.864;2022-09-12T11:32:29;4.10;;;1.90;;
8327;SDS011;4201;48.754;8.864;2022-09-12T11:35:01;2.90;;;2.10;;
8327;SDS011;4201;48.754;8.864;2022-09-12T11:37:36;2.83;;;2.00;;
8327;SDS011;4201;48.754;8.864;2022-09-12T11:40:05;3.73;;;1.90;;
8327;SDS011;4201;48.754;8.864;2022-09-12T11:42:35;3.17;;;1.80;;
8327;SDS011;4201;48.754;8.864;2022-09-12T11:45:16;3.90;;;2.43;;
8327;SDS011;4201;48.754;8.864;2022-09-12T11:47:43;2.60;;;1.57;;
8327;SDS011;4201;48.754;8.864;2022-09-12T11:50:19;3.30;;;1.80;;
8327;SDS011;4201;48.754;8.864;2022-09-12T11:52:45;3.47;;;1.50;;
8327;SDS011;4201;48.754;8.864;2022-09-12T11:55:15;2.50;;;1.60;;
8327;SDS011;4201;48.754;8.864;2022-09-12T11:57:43;2.67;;;1.37;;
8327;SDS011;4201;48.754;8.864;2022-09-12T12:00:14;6.43;;;2.27;;
8327;SDS011;4201;48.754;8.864;2022-09-12T12:02:42;2.77;;;1.70;;
8327;SDS011;4201;48.754;8.864;2022-09-12T12:05:17;3.50;;;2.20;;
8327;SDS011;4201;48.754;8.864;2022-09-12T12:07:48;3.50;;;1.80;;
8327;SDS011;4201;48.754;8.864;2022-09-12T12:10:23;3.10;;;1.80;;
8327;SDS011;4201;48.754;8.864;2022-09-12T12:12:50;4.97;;;1.57;;
8327;SDS011;4201;48.754;8.864;2022-09-12T12:15:16;3.27;;;1.53;;
8327;SDS011;4201;48.754;8.864;2022-09-12T12:17:43;3.20;;;1.63;;
8327;SDS011;4201;48.754;8.864;2022-09-12T12:20:14;3.97;;;1.43;;
8327;SDS011;4201;48.754;8.864;2022-09-12T12:22:50;2.80;;;1.40;;
8327;SDS011;4201;48.754;8.864;2022-09-12T12:25:24;3.17;;;1.87;;
8327;SDS011;4201;48.754;8.864;2022-09-12T12:27:52;3.60;;;1.37;;
8327;SDS011;4201;48.754;8.864;2022-09-12T12:33:06;2.37;;;1.30;;
8327;SDS011;4201;48.754;8.864;2022-09-12T12:36:01;4.63;;;1.40;;
8327;SDS011;4201;48.754;8.864;2022-09-12T12:38:29;3.20;;;1.97;;
8327;SDS011;4201;48.754;8.864;2022-09-12T12:43:37;2.53;;;1.33;;
8327;SDS011;4201;48.754;8.864;2022-09-12T12:46:05;3.97;;;1.50;;
8327;SDS011;4201;48.754;8.864;2022-09-12T12:48:33;2.83;;;1.50;;
8327;SDS011;4201;48.754;8.864;2022-09-12T12:53:46;2.80;;;1.30;;
8327;SDS011;4201;48.754;8.864;2022-09-12T12:56:26;2.90;;;1.40;;
8327;SDS011;4201;48.754;8.864;2022-09-12T12:58:56;2.07;;;1.10;;
8327;SDS011;4201;48.754;8.864;2022-09-12T13:01:23;2.50;;;1.00;;
8327;SDS011;4201;48.754;8.864;2022-09-12T13:03:51;2.43;;;1.33;;
8327;SDS011;4201;48.754;8.864;2022-09-12T13:06:21;2.33;;;1.30;;
8327;SDS011;4201;48.754;8.864;2022-09-12T13:08:55;4.83;;;1.40;;
8327;SDS011;4201;48.754;8.864;2022-09-12T13:11:27;2.33;;;1.20;;
8327;SDS011;4201;48.754;8.864;2022-09-12T13:13:56;3.47;;;1.50;;
8327;SDS011;4201;48.754;8.864;2022-09-12T13:16:30;2.07;;;1.30;;
8327;SDS011;4201;48.754;8.864;2022-09-12T13:18:56;2.80;;;1.63;;
8327;SDS011;4201;48.754;8.864;2022-09-12T13:21:27;2.50;;;1.40;;
8327;SDS011;4201;48.754;8.864;2022-09-12T13:24:02;2.43;;;1.33;;
8327;SDS011;4201;48.754;8.864;2022-09-12T13:26:32;2.50;;;1.10;;
8327;SDS011;4201;48.754;8.864;2022-09-12T13:29:08;1.70;;;0.90;;
8327;SDS011;4201;48.754;8.864;2022-09-12T13:31:34;2.17;;;1.20;;
8327;SDS011;4201;48.754;8.864;2022-09-12T13:34:02;3.13;;;1.20;;
8327;SDS011;4201;48.754;8.864;2022-09-12T13:36:45;3.03;;;1.50;;
8327;SDS011;4201;48.754;8.864;2022-09-12T13:39:16;3.53;;;1.37;;
8327;SDS011;4201;48.754;8.864;2022-09-12T13:41:54;2.47;;;1.30;;
8327;SDS011;4201;48.754;8.864;2022-09-12T13:44:22;5.40;;;1.10;;
8327;SDS011;4201;48.754;8.864;2022-09-12T13:46:49;3.40;;;1.20;;
8327;SDS011;4201;48.754;8.864;2022-09-12T13:49:17;4.30;;;1.50;;
8327;SDS011;4201;48.754;8.864;2022-09-12T13:51:57;3.30;;;1.60;;
8327;SDS011;4201;48.754;8.864;2022-09-12T13:54:26;2.00;;;1.10;;
8327;SDS011;4201;48.754;8.864;2022-09-12T13:56:52;2.00;;;1.10;;
8327;SDS011;4201;48.754;8.864;2022-09-12T13:59:19;1.90;;;1.03;;
8327;SDS011;4201;48.754;8.864;2022-09-12T14:01:45;2.97;;;1.30;;
8327;SDS011;4201;48.754;8.864;2022-09-12T14:04:15;3.30;;;1.00;;
8327;SDS011;4201;48.754;8.864;2022-09-12T14:07:00;3.53;;;1.40;;
8327;SDS011;4201;48.754;8.864;2022-09-12T14:09:29;2.60;;;1.40;;
8327;SDS011;4201;48.754;8.864;2022-09-12T14:11:56;1.80;;;1.00;;
8327;SDS011;4201;48.754;8.864;2022-09-12T14:14:24;2.83;;;1.30;;
8327;SDS011;4201;48.754;8.864;2022-09-12T14:16:53;3.23;;;1.20;;
8327;SDS011;4201;48.754;8.864;2022-09-12T14:19:20;2.80;;;1.50;;
8327;SDS011;4201;48.754;8.864;2022-09-12T14:21:46;2.10;;;1.17;;
8327;SDS011;4201;48.754;8.864;2022-09-12T14:24:13;7.10;;;2.20;;
8327;SDS011;4201;48.754;8.864;2022-09-12T14:26:41;2.87;;;1.67;;
8327;SDS011;4201;48.754;8.864;2022-09-12T14:29:08;4.00;;;1.50;;
8327;SDS011;4201;48.754;8.864;2022-09-12T14:31:37;2.37;;;1.20;;
8327;SDS011;4201;48.754;8.864;2022-09-12T14:34:09;2.30;;;1.07;;
8327;SDS011;4201;48.754;8.864;2022-09-12T14:36:38;3.00;;;1.50;;
8327;SDS011;4201;48.754;8.864;2022-09-12T14:39:06;4.20;;;1.70;;
8327;SDS011;4201;48.754;8.864;2022-09-12T14:41:41;5.83;;;1.93;;
8327;SDS011;4201;48.754;8.864;2022-09-12T14:44:08;7.13;;;1.70;;
8327;SDS011;4201;48.754;8.864;2022-09-12T14:46:35;2.50;;;1.50;;
8327;SDS011;4201;48.754;8.864;2022-09-12T14:49:05;3.00;;;1.60;;
8327;SDS011;4201;48.754;8.864;2022-09-12T14:51:33;2.13;;;1.30;;
8327;SDS011;4201;48.754;8.864;2022-09-12T14:54:00;4.00;;;1.40;;
8327;SDS011;4201;48.754;8.864;2022-09-12T14:56:36;3.13;;;1.20;;
8327;SDS011;4201;48.754;8.864;2022-09-12T14:59:23;2.60;;;1.43;;
8327;SDS011;4201;48.754;8.864;2022-09-12T15:04:38;2.17;;;1.20;;
8327;SDS011;4201;48.754;8.864;2022-09-12T15:07:12;6.57;;;1.87;;
8327;SDS011;4201;48.754;8.864;2022-09-12T15:09:38;2.50;;;1.67;;
8327;SDS011;4201;48.754;8.864;2022-09-12T15:12:05;2.37;;;1.40;;
8327;SDS011;4201;48.754;8.864;2022-09-12T15:14:32;2.60;;;1.47;;
8327;SDS011;4201;48.754;8.864;2022-09-12T15:16:58;2.57;;;1.50;;
8327;SDS011;4201;48.754;8.864;2022-09-12T15:19:25;3.40;;;1.80;;
8327;SDS011;4201;48.754;8.864;2022-09-12T15:21:51;2.60;;;1.50;;
8327;SDS011;4201;48.754;8.864;2022-09-12T15:24:17;2.30;;;1.50;;
8327;SDS011;4201;48.754;8.864;2022-09-12T15:26:44;4.17;;;2.03;;
8327;SDS011;4201;48.754;8.864;2022-09-12T15:29:10;2.73;;;1.50;;
8327;SDS011;4201;48.754;8.864;2022-09-12T15:31:37;3.00;;;2.00;;
8327;SDS011;4201;48.754;8.864;2022-09-12T15:34:04;2.37;;;1.57;;
8327;SDS011;4201;48.754;8.864;2022-09-12T15:36:31;2.20;;;1.20;;